sensor_id;sensor_type;location;lat;lon;timestamp;temperature;humidity
7204;DHT22;3643;52.460;13.322;2023-05-23T00:00:22;18.00;90.00
7204;DHT22;3643;52.460;13.322;2023-05-23T00:02:51;17.90;90.10
7204;DHT22;3643;52.460;13.322;2023-05-23T00:05:20;17.90;90.10
7204;DHT22;3643;52.460;13.322;2023-05-23T00:07:48;17.90;90.20
7204;DHT22;3643;52.460;13.322;2023-05-23T00:10:17;17.90;90.20
7204;DHT22;3643;52.460;13.322;2023-05-23T00:12:47;17.90;90.30
7204;DHT22;3643;52.460;13.322;2023-05-23T00:15:15;17.90;90.30
7204;DHT22;3643;52.460;13.322;2023-05-23T00:17:43;17.80;90.40
7204;DHT22;3643;52.460;13.322;2023-05-23T00:20:13;17.80;90.80
7204;DHT22;3643;52.460;13.322;2023-05-23T00:22:42;17.70;90.50
7204;DHT22;3643;52.460;13.322;2023-05-23T00:25:10;17.70;90.60
7204;DHT22;3643;52.460;13.322;2023-05-23T00:27:38;17.70;90.60
7204;DHT22;3643;52.460;13.322;2023-05-23T00:30:09;17.70;90.70
7204;DHT22;3643;52.460;13.322;2023-05-23T00:32:38;17.70;90.70
7204;DHT22;3643;52.460;13.322;2023-05-23T00:35:07;17.60;90.70
7204;DHT22;3643;52.460;13.322;2023-05-23T00:37:36;17.60;90.70
7204;DHT22;3643;52.460;13.322;2023-05-23T00:40:05;17.60;90.80
7204;DHT22;3643;52.460;13.322;2023-05-23T00:42:34;17.60;90.80
7204;DHT22;3643;52.460;13.322;2023-05-23T00:45:02;17.50;90.80
7204;DHT22;3643;52.460;13.322;2023-05-23T00:47:32;17.30;90.80
7204;DHT22;3643;52.460;13.322;2023-05-23T00:50:01;17.40;90.90
7204;DHT22;3643;52.460;13.322;2023-05-23T00:52:29;17.40;91.00
7204;DHT22;3643;52.460;13.322;2023-05-23T00:54:58;17.30;91.10
7204;DHT22;3643;52.460;13.322;2023-05-23T00:57:26;17.20;91.30
7204;DHT22;3643;52.460;13.322;2023-05-23T00:59:55;17.20;91.30
7204;DHT22;3643;52.460;13.322;2023-05-23T01:02:24;17.10;91.20
7204;DHT22;3643;52.460;13.322;2023-05-23T01:04:55;18.00;91.70
7204;DHT22;3643;52.460;13.322;2023-05-23T01:07:24;17.10;91.40
7204;DHT22;3643;52.460;13.322;2023-05-23T01:09:52;17.00;91.30
7204;DHT22;3643;52.460;13.322;2023-05-23T01:12:28;17.00;91.40
7204;DHT22;3643;52.460;13.322;2023-05-23T01:15:04;17.00;91.50
7204;DHT22;3643;52.460;13.322;2023-05-23T01:17:40;17.00;91.50
7204;DHT22;3643;52.460;13.322;2023-05-23T01:20:17;17.00;91.50
7204;DHT22;3643;52.460;13.322;2023-05-23T01:22:59;17.00;91.50
7204;DHT22;3643;52.460;13.322;2023-05-23T01:25:44;17.00;91.60
7204;DHT22;3643;52.460;13.322;2023-05-23T01:28:17;17.00;91.50
7204;DHT22;3643;52.460;13.322;2023-05-23T01:30:47;17.00;91.50
7204;DHT22;3643;52.460;13.322;2023-05-23T01:33:19;17.00;91.60
7204;DHT22;3643;52.460;13.322;2023-05-23T01:35:48;17.00;91.60
7204;DHT22;3643;52.460;13.322;2023-05-23T01:38:17;17.00;91.60
7204;DHT22;3643;52.460;13.322;2023-05-23T01:40:45;17.00;91.60
7204;DHT22;3643;52.460;13.322;2023-05-23T01:43:15;17.00;91.70
7204;DHT22;3643;52.460;13.322;2023-05-23T01:45:43;17.00;91.70
7204;DHT22;3643;52.460;13.322;2023-05-23T01:48:13;17.00;91.70
7204;DHT22;3643;52.460;13.322;2023-05-23T01:50:42;17.00;91.70
7204;DHT22;3643;52.460;13.322;2023-05-23T01:53:13;17.00;91.70
7204;DHT22;3643;52.460;13.322;2023-05-23T01:55:43;17.00;91.80
7204;DHT22;3643;52.460;13.322;2023-05-23T01:58:12;16.90;91.80
7204;DHT22;3643;52.460;13.322;2023-05-23T02:00:42;16.90;91.80
7204;DHT22;3643;52.460;13.322;2023-05-23T02:03:11;16.90;91.90
7204;DHT22;3643;52.460;13.322;2023-05-23T02:05:39;16.90;91.90
7204;DHT22;3643;52.460;13.322;2023-05-23T02:08:08;16.90;91.90
7204;DHT22;3643;52.460;13.322;2023-05-23T02:10:36;16.90;92.20
7204;DHT22;3643;52.460;13.322;2023-05-23T02:13:05;16.90;92.00
7204;DHT22;3643;52.460;13.322;2023-05-23T02:15:33;16.90;92.10
7204;DHT22;3643;52.460;13.322;2023-05-23T02:18:03;16.80;92.10
7204;DHT22;3643;52.460;13.322;2023-05-23T02:20:32;16.80;92.10
7204;DHT22;3643;52.460;13.322;2023-05-23T02:23:01;16.80;92.10
7204;DHT22;3643;52.460;13.322;2023-05-23T02:25:29;16.80;92.10
7204;DHT22;3643;52.460;13.322;2023-05-23T02:27:57;16.80;92.10
7204;DHT22;3643;52.460;13.322;2023-05-23T02:30:26;16.80;92.10
7204;DHT22;3643;52.460;13.322;2023-05-23T02:32:54;16.80;92.10
7204;DHT22;3643;52.460;13.322;2023-05-23T02:35:25;16.90;92.20
7204;DHT22;3643;52.460;13.322;2023-05-23T02:37:53;16.90;92.20
7204;DHT22;3643;52.460;13.322;2023-05-23T02:40:22;16.90;92.20
7204;DHT22;3643;52.460;13.322;2023-05-23T02:42:50;16.80;92.20
7204;DHT22;3643;52.460;13.322;2023-05-23T02:45:19;16.80;92.20
7204;DHT22;3643;52.460;13.322;2023-05-23T02:47:47;16.80;92.20
7204;DHT22;3643;52.460;13.322;2023-05-23T02:50:16;16.80;92.20
7204;DHT22;3643;52.460;13.322;2023-05-23T02:52:46;16.80;92.30
7204;DHT22;3643;52.460;13.322;2023-05-23T02:55:15;16.80;92.30
7204;DHT22;3643;52.460;13.322;2023-05-23T02:57:43;16.80;92.20
7204;DHT22;3643;52.460;13.322;2023-05-23T03:00:12;16.80;92.20
7204;DHT22;3643;52.460;13.322;2023-05-23T03:02:41;16.90;92.20
7204;DHT22;3643;52.460;13.322;2023-05-23T03:05:10;16.80;92.20
7204;DHT22;3643;52.460;13.322;2023-05-23T03:07:38;16.90;92.10
7204;DHT22;3643;52.460;13.322;2023-05-23T03:10:09;16.60;92.00
7204;DHT22;3643;52.460;13.322;2023-05-23T03:12:37;16.90;92.20
7204;DHT22;3643;52.460;13.322;2023-05-23T03:15:07;16.90;92.20
7204;DHT22;3643;52.460;13.322;2023-05-23T03:17:35;16.90;92.20
7204;DHT22;3643;52.460;13.322;2023-05-23T03:20:05;16.90;92.20
7204;DHT22;3643;52.460;13.322;2023-05-23T03:22:35;16.90;92.30
7204;DHT22;3643;52.460;13.322;2023-05-23T03:25:05;16.90;92.50
7204;DHT22;3643;52.460;13.322;2023-05-23T03:27:35;16.80;92.70
7204;DHT22;3643;52.460;13.322;2023-05-23T03:30:03;16.80;92.70
7204;DHT22;3643;52.460;13.322;2023-05-23T03:32:32;16.80;92.90
7204;DHT22;3643;52.460;13.322;2023-05-23T03:35:01;16.80;93.10
7204;DHT22;3643;52.460;13.322;2023-05-23T03:37:29;16.80;93.30
7204;DHT22;3643;52.460;13.322;2023-05-23T03:39:57;16.70;93.20
7204;DHT22;3643;52.460;13.322;2023-05-23T03:42:27;16.70;93.30
7204;DHT22;3643;52.460;13.322;2023-05-23T03:44:57;16.70;93.40
7204;DHT22;3643;52.460;13.322;2023-05-23T03:47:25;16.70;93.40
7204;DHT22;3643;52.460;13.322;2023-05-23T03:49:54;16.60;93.40
7204;DHT22;3643;52.460;13.322;2023-05-23T03:52:22;16.70;93.50
7204;DHT22;3643;52.460;13.322;2023-05-23T03:54:51;16.60;93.40
7204;DHT22;3643;52.460;13.322;2023-05-23T03:57:19;16.60;93.40
7204;DHT22;3643;52.460;13.322;2023-05-23T03:59:48;16.60;93.40
7204;DHT22;3643;52.460;13.322;2023-05-23T04:02:18;16.60;93.40
7204;DHT22;3643;52.460;13.322;2023-05-23T04:04:48;16.60;93.40
7204;DHT22;3643;52.460;13.322;2023-05-23T04:07:17;16.70;93.30
7204;DHT22;3643;52.460;13.322;2023-05-23T04:09:45;16.70;93.30
7204;DHT22;3643;52.460;13.322;2023-05-23T04:12:14;16.70;93.30
7204;DHT22;3643;52.460;13.322;2023-05-23T04:14:42;16.70;93.40
7204;DHT22;3643;52.460;13.322;2023-05-23T04:17:11;16.70;93.50
7204;DHT22;3643;52.460;13.322;2023-05-23T04:19:40;16.70;93.40
7204;DHT22;3643;52.460;13.322;2023-05-23T04:22:09;16.60;93.40
7204;DHT22;3643;52.460;13.322;2023-05-23T04:24:37;16.70;93.40
7204;DHT22;3643;52.460;13.322;2023-05-23T04:27:05;16.70;93.30
7204;DHT22;3643;52.460;13.322;2023-05-23T04:29:34;16.70;93.40
7204;DHT22;3643;52.460;13.322;2023-05-23T04:32:04;16.70;93.40
7204;DHT22;3643;52.460;13.322;2023-05-23T04:34:33;16.80;93.40
7204;DHT22;3643;52.460;13.322;2023-05-23T04:37:05;16.80;93.40
7204;DHT22;3643;52.460;13.322;2023-05-23T04:39:35;16.80;93.50
7204;DHT22;3643;52.460;13.322;2023-05-23T04:42:05;16.80;93.50
7204;DHT22;3643;52.460;13.322;2023-05-23T04:44:34;16.80;93.50
7204;DHT22;3643;52.460;13.322;2023-05-23T04:47:03;17.10;93.70
7204;DHT22;3643;52.460;13.322;2023-05-23T04:49:36;16.70;93.60
7204;DHT22;3643;52.460;13.322;2023-05-23T04:52:05;16.70;93.60
7204;DHT22;3643;52.460;13.322;2023-05-23T04:54:34;16.70;93.70
7204;DHT22;3643;52.460;13.322;2023-05-23T04:57:03;16.80;93.80
7204;DHT22;3643;52.460;13.322;2023-05-23T04:59:32;16.80;93.70
7204;DHT22;3643;52.460;13.322;2023-05-23T05:02:00;16.80;93.80
7204;DHT22;3643;52.460;13.322;2023-05-23T05:04:28;16.90;93.90
7204;DHT22;3643;52.460;13.322;2023-05-23T05:06:56;16.80;93.80
7204;DHT22;3643;52.460;13.322;2023-05-23T05:09:26;16.90;93.90
7204;DHT22;3643;52.460;13.322;2023-05-23T05:11:54;16.90;93.90
7204;DHT22;3643;52.460;13.322;2023-05-23T05:14:24;16.90;93.80
7204;DHT22;3643;52.460;13.322;2023-05-23T05:16:53;16.90;93.80
7204;DHT22;3643;52.460;13.322;2023-05-23T05:19:23;17.00;93.90
7204;DHT22;3643;52.460;13.322;2023-05-23T05:21:52;16.90;93.70
7204;DHT22;3643;52.460;13.322;2023-05-23T05:24:20;16.90;93.80
7204;DHT22;3643;52.460;13.322;2023-05-23T05:26:50;16.90;93.70
7204;DHT22;3643;52.460;13.322;2023-05-23T05:29:18;16.90;93.80
7204;DHT22;3643;52.460;13.322;2023-05-23T05:31:46;16.70;93.80
7204;DHT22;3643;52.460;13.322;2023-05-23T05:34:15;16.90;93.80
7204;DHT22;3643;52.460;13.322;2023-05-23T05:36:43;17.00;93.90
7204;DHT22;3643;52.460;13.322;2023-05-23T05:39:14;17.00;94.00
7204;DHT22;3643;52.460;13.322;2023-05-23T05:41:42;17.00;94.10
7204;DHT22;3643;52.460;13.322;2023-05-23T05:44:12;17.00;94.30
7204;DHT22;3643;52.460;13.322;2023-05-23T05:46:40;17.00;94.30
7204;DHT22;3643;52.460;13.322;2023-05-23T05:49:09;17.10;94.30
7204;DHT22;3643;52.460;13.322;2023-05-23T05:51:38;17.10;94.40
7204;DHT22;3643;52.460;13.322;2023-05-23T05:54:07;17.10;94.40
7204;DHT22;3643;52.460;13.322;2023-05-23T05:56:35;17.00;94.40
7204;DHT22;3643;52.460;13.322;2023-05-23T05:59:03;17.00;94.40
7204;DHT22;3643;52.460;13.322;2023-05-23T06:01:33;17.00;94.20
7204;DHT22;3643;52.460;13.322;2023-05-23T06:04:02;17.00;94.30
7204;DHT22;3643;52.460;13.322;2023-05-23T06:06:30;17.00;94.30
7204;DHT22;3643;52.460;13.322;2023-05-23T06:08:59;17.00;94.40
7204;DHT22;3643;52.460;13.322;2023-05-23T06:11:27;17.10;94.70
7204;DHT22;3643;52.460;13.322;2023-05-23T06:13:55;17.20;94.90
7204;DHT22;3643;52.460;13.322;2023-05-23T06:16:24;17.30;95.10
7204;DHT22;3643;52.460;13.322;2023-05-23T06:18:53;17.40;95.30
7204;DHT22;3643;52.460;13.322;2023-05-23T06:21:22;17.50;95.50
7204;DHT22;3643;52.460;13.322;2023-05-23T06:23:50;17.50;95.60
7204;DHT22;3643;52.460;13.322;2023-05-23T06:26:19;17.60;95.70
7204;DHT22;3643;52.460;13.322;2023-05-23T06:28:47;17.80;96.00
7204;DHT22;3643;52.460;13.322;2023-05-23T06:31:15;17.90;96.00
7204;DHT22;3643;52.460;13.322;2023-05-23T06:33:44;18.20;96.10
7204;DHT22;3643;52.460;13.322;2023-05-23T06:36:13;18.50;95.90
7204;DHT22;3643;52.460;13.322;2023-05-23T06:38:42;18.90;95.70
7204;DHT22;3643;52.460;13.322;2023-05-23T06:41:10;19.40;95.60
7204;DHT22;3643;52.460;13.322;2023-05-23T06:43:38;19.80;95.10
7204;DHT22;3643;52.460;13.322;2023-05-23T06:46:06;20.30;95.00
7204;DHT22;3643;52.460;13.322;2023-05-23T06:48:35;20.60;94.20
7204;DHT22;3643;52.460;13.322;2023-05-23T06:51:03;20.80;93.90
7204;DHT22;3643;52.460;13.322;2023-05-23T06:53:33;21.10;93.60
7204;DHT22;3643;52.460;13.322;2023-05-23T06:56:01;21.40;93.30
7204;DHT22;3643;52.460;13.322;2023-05-23T06:58:29;21.40;92.80
7204;DHT22;3643;52.460;13.322;2023-05-23T07:00:58;21.50;93.00
7204;DHT22;3643;52.460;13.322;2023-05-23T07:03:26;21.40;92.80
7204;DHT22;3643;52.460;13.322;2023-05-23T07:05:54;21.50;92.90
7204;DHT22;3643;52.460;13.322;2023-05-23T07:08:23;21.70;92.90
7204;DHT22;3643;52.460;13.322;2023-05-23T07:10:52;21.90;92.80
7204;DHT22;3643;52.460;13.322;2023-05-23T07:13:21;21.70;93.00
7204;DHT22;3643;52.460;13.322;2023-05-23T07:15:49;21.50;92.90
7204;DHT22;3643;52.460;13.322;2023-05-23T07:18:17;21.20;93.40
7204;DHT22;3643;52.460;13.322;2023-05-23T07:20:46;21.00;93.60
7204;DHT22;3643;52.460;13.322;2023-05-23T07:23:14;20.90;93.10
7204;DHT22;3643;52.460;13.322;2023-05-23T07:25:43;20.90;92.90
7204;DHT22;3643;52.460;13.322;2023-05-23T07:28:29;21.10;92.90
7204;DHT22;3643;52.460;13.322;2023-05-23T07:30:58;21.30;92.60
7204;DHT22;3643;52.460;13.322;2023-05-23T07:33:26;22.00;92.90
7204;DHT22;3643;52.460;13.322;2023-05-23T07:35:55;21.90;92.40
7204;DHT22;3643;52.460;13.322;2023-05-23T07:38:25;22.40;92.50
7204;DHT22;3643;52.460;13.322;2023-05-23T07:40:53;22.50;92.30
7204;DHT22;3643;52.460;13.322;2023-05-23T07:43:38;23.00;91.80
7204;DHT22;3643;52.460;13.322;2023-05-23T07:46:07;23.70;91.60
7204;DHT22;3643;52.460;13.322;2023-05-23T07:48:35;23.90;91.10
7204;DHT22;3643;52.460;13.322;2023-05-23T07:51:03;23.80;91.00
7204;DHT22;3643;52.460;13.322;2023-05-23T07:53:32;23.50;91.40
7204;DHT22;3643;52.460;13.322;2023-05-23T07:56:00;23.10;91.60
7204;DHT22;3643;52.460;13.322;2023-05-23T07:58:29;23.00;92.00
7204;DHT22;3643;52.460;13.322;2023-05-23T08:00:58;23.10;92.00
7204;DHT22;3643;52.460;13.322;2023-05-23T08:03:26;22.90;92.20
7204;DHT22;3643;52.460;13.322;2023-05-23T08:05:55;22.90;92.50
7204;DHT22;3643;52.460;13.322;2023-05-23T08:08:23;23.20;92.30
7204;DHT22;3643;52.460;13.322;2023-05-23T08:10:51;23.40;92.10
7204;DHT22;3643;52.460;13.322;2023-05-23T08:13:19;23.50;92.40
7204;DHT22;3643;52.460;13.322;2023-05-23T08:15:47;24.50;92.00
7204;DHT22;3643;52.460;13.322;2023-05-23T08:18:17;26.10;91.30
7204;DHT22;3643;52.460;13.322;2023-05-23T08:20:45;26.80;90.30
7204;DHT22;3643;52.460;13.322;2023-05-23T08:23:13;27.30;90.50
7204;DHT22;3643;52.460;13.322;2023-05-23T08:25:44;27.40;89.80
7204;DHT22;3643;52.460;13.322;2023-05-23T08:28:12;28.00;90.00
7204;DHT22;3643;52.460;13.322;2023-05-23T08:30:40;28.20;89.20
7204;DHT22;3643;52.460;13.322;2023-05-23T08:33:08;28.70;89.00
7204;DHT22;3643;52.460;13.322;2023-05-23T08:35:38;28.80;88.40
7204;DHT22;3643;52.460;13.322;2023-05-23T08:38:08;29.40;87.30
7204;DHT22;3643;52.460;13.322;2023-05-23T08:40:36;29.10;86.70
7204;DHT22;3643;52.460;13.322;2023-05-23T08:43:06;28.40;89.10
7204;DHT22;3643;52.460;13.322;2023-05-23T08:45:36;27.60;90.20
7204;DHT22;3643;52.460;13.322;2023-05-23T08:48:07;26.80;90.80
7204;DHT22;3643;52.460;13.322;2023-05-23T08:50:40;26.60;91.20
7204;DHT22;3643;52.460;13.322;2023-05-23T08:53:09;26.00;91.60
7204;DHT22;3643;52.460;13.322;2023-05-23T08:55:46;25.40;92.10
7204;DHT22;3643;52.460;13.322;2023-05-23T08:58:17;25.10;92.80
7204;DHT22;3643;52.460;13.322;2023-05-23T09:00:46;24.30;93.50
7204;DHT22;3643;52.460;13.322;2023-05-23T09:03:16;24.00;94.10
7204;DHT22;3643;52.460;13.322;2023-05-23T09:05:47;24.10;94.10
7204;DHT22;3643;52.460;13.322;2023-05-23T09:08:16;23.70;94.30
7204;DHT22;3643;52.460;13.322;2023-05-23T09:10:46;24.00;94.30
7204;DHT22;3643;52.460;13.322;2023-05-23T09:13:15;24.10;94.70
7204;DHT22;3643;52.460;13.322;2023-05-23T09:16:02;24.40;94.10
7204;DHT22;3643;52.460;13.322;2023-05-23T09:18:33;24.60;94.10
7204;DHT22;3643;52.460;13.322;2023-05-23T09:21:04;24.40;94.80
7204;DHT22;3643;52.460;13.322;2023-05-23T09:23:33;24.90;94.20
7204;DHT22;3643;52.460;13.322;2023-05-23T09:26:02;24.80;94.30
7204;DHT22;3643;52.460;13.322;2023-05-23T09:28:32;24.90;94.20
7204;DHT22;3643;52.460;13.322;2023-05-23T09:31:01;24.70;94.30
7204;DHT22;3643;52.460;13.322;2023-05-23T09:33:38;24.60;94.10
7204;DHT22;3643;52.460;13.322;2023-05-23T09:36:08;24.20;94.40
7204;DHT22;3643;52.460;13.322;2023-05-23T09:38:37;24.20;94.70
7204;DHT22;3643;52.460;13.322;2023-05-23T09:41:06;24.10;94.90
7204;DHT22;3643;52.460;13.322;2023-05-23T09:43:36;23.60;95.30
7204;DHT22;3643;52.460;13.322;2023-05-23T09:46:06;23.30;95.80
7204;DHT22;3643;52.460;13.322;2023-05-23T09:48:35;23.40;95.40
7204;DHT22;3643;52.460;13.322;2023-05-23T09:51:04;23.30;95.70
7204;DHT22;3643;52.460;13.322;2023-05-23T09:53:35;23.00;96.40
7204;DHT22;3643;52.460;13.322;2023-05-23T09:56:03;23.10;96.60
7204;DHT22;3643;52.460;13.322;2023-05-23T09:58:32;23.30;96.90
7204;DHT22;3643;52.460;13.322;2023-05-23T10:01:02;23.50;97.00
7204;DHT22;3643;52.460;13.322;2023-05-23T10:03:33;23.50;96.90
7204;DHT22;3643;52.460;13.322;2023-05-23T10:06:07;23.80;96.90
7204;DHT22;3643;52.460;13.322;2023-05-23T10:08:42;24.00;97.00
7204;DHT22;3643;52.460;13.322;2023-05-23T10:14:18;24.40;97.00
7204;DHT22;3643;52.460;13.322;2023-05-23T10:16:55;23.90;97.60
7204;DHT22;3643;52.460;13.322;2023-05-23T10:19:31;24.20;97.50
7204;DHT22;3643;52.460;13.322;2023-05-23T10:22:06;23.90;97.80
7204;DHT22;3643;52.460;13.322;2023-05-23T10:24:37;23.70;97.70
7204;DHT22;3643;52.460;13.322;2023-05-23T10:27:06;23.60;97.90
7204;DHT22;3643;52.460;13.322;2023-05-23T10:29:35;23.20;98.50
7204;DHT22;3643;52.460;13.322;2023-05-23T10:32:04;22.80;99.00
7204;DHT22;3643;52.460;13.322;2023-05-23T10:34:38;22.40;99.40
7204;DHT22;3643;52.460;13.322;2023-05-23T10:37:14;22.00;99.90
7204;DHT22;3643;52.460;13.322;2023-05-23T10:39:53;21.60;99.90
7204;DHT22;3643;52.460;13.322;2023-05-23T10:42:41;21.80;99.90
7204;DHT22;3643;52.460;13.322;2023-05-23T10:45:14;21.90;99.90
7204;DHT22;3643;52.460;13.322;2023-05-23T10:47:42;22.20;99.90
7204;DHT22;3643;52.460;13.322;2023-05-23T10:50:15;22.30;99.90
7204;DHT22;3643;52.460;13.322;2023-05-23T10:52:43;22.20;99.90
7204;DHT22;3643;52.460;13.322;2023-05-23T10:55:14;21.90;99.90
7204;DHT22;3643;52.460;13.322;2023-05-23T10:57:44;21.80;99.90
7204;DHT22;3643;52.460;13.322;2023-05-23T11:00:14;21.60;99.90
7204;DHT22;3643;52.460;13.322;2023-05-23T11:02:59;20.80;99.90
7204;DHT22;3643;52.460;13.322;2023-05-23T11:05:28;20.40;99.90
7204;DHT22;3643;52.460;13.322;2023-05-23T11:08:08;20.10;99.90
7204;DHT22;3643;52.460;13.322;2023-05-23T11:10:57;20.30;99.90
7204;DHT22;3643;52.460;13.322;2023-05-23T11:13:55;20.30;99.90
7204;DHT22;3643;52.460;13.322;2023-05-23T11:16:27;20.50;99.90
7204;DHT22;3643;52.460;13.322;2023-05-23T11:19:20;20.40;99.90
7204;DHT22;3643;52.460;13.322;2023-05-23T11:21:56;20.50;99.90
7204;DHT22;3643;52.460;13.322;2023-05-23T11:24:46;20.20;99.90
7204;DHT22;3643;52.460;13.322;2023-05-23T11:27:17;20.10;99.90
7204;DHT22;3643;52.460;13.322;2023-05-23T11:30:00;19.90;99.90
7204;DHT22;3643;52.460;13.322;2023-05-23T11:32:29;19.80;99.90
7204;DHT22;3643;52.460;13.322;2023-05-23T11:34:59;19.70;99.90
7204;DHT22;3643;52.460;13.322;2023-05-23T11:37:28;19.60;99.90
7204;DHT22;3643;52.460;13.322;2023-05-23T11:39:57;19.50;99.90
7204;DHT22;3643;52.460;13.322;2023-05-23T11:42:27;19.30;99.90
7204;DHT22;3643;52.460;13.322;2023-05-23T11:44:55;19.40;99.90
7204;DHT22;3643;52.460;13.322;2023-05-23T11:47:23;19.40;99.90
7204;DHT22;3643;52.460;13.322;2023-05-23T11:49:52;19.40;99.90
7204;DHT22;3643;52.460;13.322;2023-05-23T11:52:20;19.60;99.90
7204;DHT22;3643;52.460;13.322;2023-05-23T11:54:49;19.60;99.90
7204;DHT22;3643;52.460;13.322;2023-05-23T11:57:20;19.70;99.90
7204;DHT22;3643;52.460;13.322;2023-05-23T11:59:50;19.50;99.90
7204;DHT22;3643;52.460;13.322;2023-05-23T12:02:20;19.70;99.90
7204;DHT22;3643;52.460;13.322;2023-05-23T12:04:49;20.10;99.90
7204;DHT22;3643;52.460;13.322;2023-05-23T12:07:18;20.00;99.90
7204;DHT22;3643;52.460;13.322;2023-05-23T12:09:47;20.00;99.90
7204;DHT22;3643;52.460;13.322;2023-05-23T12:12:16;20.10;99.90
7204;DHT22;3643;52.460;13.322;2023-05-23T12:14:46;20.20;99.90
7204;DHT22;3643;52.460;13.322;2023-05-23T12:17:16;20.50;99.90
7204;DHT22;3643;52.460;13.322;2023-05-23T12:19:45;20.20;99.90
7204;DHT22;3643;52.460;13.322;2023-05-23T12:22:14;20.30;99.90
7204;DHT22;3643;52.460;13.322;2023-05-23T12:24:45;20.20;99.90
7204;DHT22;3643;52.460;13.322;2023-05-23T12:27:15;20.00;99.90
7204;DHT22;3643;52.460;13.322;2023-05-23T12:29:49;19.80;99.90
7204;DHT22;3643;52.460;13.322;2023-05-23T12:32:23;19.90;99.90
7204;DHT22;3643;52.460;13.322;2023-05-23T12:34:52;20.10;99.90
7204;DHT22;3643;52.460;13.322;2023-05-23T12:37:21;20.30;99.90
7204;DHT22;3643;52.460;13.322;2023-05-23T12:39:50;20.50;99.90
7204;DHT22;3643;52.460;13.322;2023-05-23T12:42:19;20.20;99.90
7204;DHT22;3643;52.460;13.322;2023-05-23T12:44:50;20.40;99.90
7204;DHT22;3643;52.460;13.322;2023-05-23T12:47:20;20.60;99.90
7204;DHT22;3643;52.460;13.322;2023-05-23T12:49:49;20.80;99.90
7204;DHT22;3643;52.460;13.322;2023-05-23T12:52:18;20.70;99.90
7204;DHT22;3643;52.460;13.322;2023-05-23T12:54:47;20.50;99.90
7204;DHT22;3643;52.460;13.322;2023-05-23T12:57:15;20.50;99.90
7204;DHT22;3643;52.460;13.322;2023-05-23T12:59:44;20.40;99.90
7204;DHT22;3643;52.460;13.322;2023-05-23T13:02:12;19.40;99.90
7204;DHT22;3643;52.460;13.322;2023-05-23T13:04:42;20.30;99.90
7204;DHT22;3643;52.460;13.322;2023-05-23T13:07:11;20.10;99.90
7204;DHT22;3643;52.460;13.322;2023-05-23T13:09:40;20.40;99.90
7204;DHT22;3643;52.460;13.322;2023-05-23T13:12:08;20.70;99.90
7204;DHT22;3643;52.460;13.322;2023-05-23T13:14:38;20.80;99.90
7204;DHT22;3643;52.460;13.322;2023-05-23T13:17:07;20.70;99.90
7204;DHT22;3643;52.460;13.322;2023-05-23T13:19:36;20.60;99.90
7204;DHT22;3643;52.460;13.322;2023-05-23T13:22:06;20.40;99.90
7204;DHT22;3643;52.460;13.322;2023-05-23T13:24:36;20.30;99.90
7204;DHT22;3643;52.460;13.322;2023-05-23T13:27:06;20.10;99.90
7204;DHT22;3643;52.460;13.322;2023-05-23T13:29:34;19.80;99.90
7204;DHT22;3643;52.460;13.322;2023-05-23T13:32:03;19.60;99.90
7204;DHT22;3643;52.460;13.322;2023-05-23T13:34:32;19.30;99.90
7204;DHT22;3643;52.460;13.322;2023-05-23T13:37:03;19.10;99.90
7204;DHT22;3643;52.460;13.322;2023-05-23T13:39:34;18.90;99.90
7204;DHT22;3643;52.460;13.322;2023-05-23T13:42:03;18.70;99.90
7204;DHT22;3643;52.460;13.322;2023-05-23T13:44:31;18.50;99.90
7204;DHT22;3643;52.460;13.322;2023-05-23T13:47:09;18.30;99.90
7204;DHT22;3643;52.460;13.322;2023-05-23T13:49:39;18.10;99.90
7204;DHT22;3643;52.460;13.322;2023-05-23T13:52:08;17.90;99.90
7204;DHT22;3643;52.460;13.322;2023-05-23T13:54:37;17.90;99.90
7204;DHT22;3643;52.460;13.322;2023-05-23T13:57:07;18.00;99.90
7204;DHT22;3643;52.460;13.322;2023-05-23T13:59:35;18.30;99.90
7204;DHT22;3643;52.460;13.322;2023-05-23T14:02:05;18.40;99.90
7204;DHT22;3643;52.460;13.322;2023-05-23T14:04:34;18.40;99.90
7204;DHT22;3643;52.460;13.322;2023-05-23T14:07:02;17.90;99.90
7204;DHT22;3643;52.460;13.322;2023-05-23T14:09:31;18.30;99.90
7204;DHT22;3643;52.460;13.322;2023-05-23T14:12:00;18.30;99.90
7204;DHT22;3643;52.460;13.322;2023-05-23T14:14:29;18.30;99.90
7204;DHT22;3643;52.460;13.322;2023-05-23T14:16:57;18.30;99.90
7204;DHT22;3643;52.460;13.322;2023-05-23T14:19:25;18.00;99.90
7204;DHT22;3643;52.460;13.322;2023-05-23T14:21:54;18.00;99.90
7204;DHT22;3643;52.460;13.322;2023-05-23T14:24:22;17.90;99.90
7204;DHT22;3643;52.460;13.322;2023-05-23T14:26:50;17.80;99.90
7204;DHT22;3643;52.460;13.322;2023-05-23T14:29:20;17.60;99.90
7204;DHT22;3643;52.460;13.322;2023-05-23T14:31:48;17.50;99.90
7204;DHT22;3643;52.460;13.322;2023-05-23T14:34:17;17.50;99.90
7204;DHT22;3643;52.460;13.322;2023-05-23T14:36:45;17.60;99.90
7204;DHT22;3643;52.460;13.322;2023-05-23T14:39:13;17.50;99.90
7204;DHT22;3643;52.460;13.322;2023-05-23T14:41:42;17.40;99.90
7204;DHT22;3643;52.460;13.322;2023-05-23T14:44:12;17.30;99.90
7204;DHT22;3643;52.460;13.322;2023-05-23T14:46:42;17.20;99.90
7204;DHT22;3643;52.460;13.322;2023-05-23T14:49:14;17.20;99.90
7204;DHT22;3643;52.460;13.322;2023-05-23T14:51:43;17.10;99.90
7204;DHT22;3643;52.460;13.322;2023-05-23T14:54:17;17.00;99.90
7204;DHT22;3643;52.460;13.322;2023-05-23T14:56:46;16.90;99.90
7204;DHT22;3643;52.460;13.322;2023-05-23T14:59:18;16.80;99.90
7204;DHT22;3643;52.460;13.322;2023-05-23T15:01:49;16.60;99.90
7204;DHT22;3643;52.460;13.322;2023-05-23T15:04:17;16.50;99.90
7204;DHT22;3643;52.460;13.322;2023-05-23T15:06:46;16.30;99.90
7204;DHT22;3643;52.460;13.322;2023-05-23T15:09:15;16.00;99.90
7204;DHT22;3643;52.460;13.322;2023-05-23T15:11:44;15.60;99.90
7204;DHT22;3643;52.460;13.322;2023-05-23T15:14:15;15.20;99.90
7204;DHT22;3643;52.460;13.322;2023-05-23T15:16:44;14.90;99.90
7204;DHT22;3643;52.460;13.322;2023-05-23T15:19:16;14.70;99.90
7204;DHT22;3643;52.460;13.322;2023-05-23T15:21:44;14.40;99.90
7204;DHT22;3643;52.460;13.322;2023-05-23T15:24:18;14.30;99.90
7204;DHT22;3643;52.460;13.322;2023-05-23T15:26:46;14.20;99.90
7204;DHT22;3643;52.460;13.322;2023-05-23T15:29:14;14.10;99.90
7204;DHT22;3643;52.460;13.322;2023-05-23T15:31:44;14.10;99.90
7204;DHT22;3643;52.460;13.322;2023-05-23T15:34:12;14.10;99.90
7204;DHT22;3643;52.460;13.322;2023-05-23T15:36:42;14.10;99.90
7204;DHT22;3643;52.460;13.322;2023-05-23T15:39:10;14.10;99.90
7204;DHT22;3643;52.460;13.322;2023-05-23T15:41:39;14.20;99.90
7204;DHT22;3643;52.460;13.322;2023-05-23T15:44:07;14.20;99.90
7204;DHT22;3643;52.460;13.322;2023-05-23T15:46:39;14.10;99.90
7204;DHT22;3643;52.460;13.322;2023-05-23T15:49:08;14.10;99.90
7204;DHT22;3643;52.460;13.322;2023-05-23T15:51:53;14.10;99.90
7204;DHT22;3643;52.460;13.322;2023-05-23T15:54:21;14.10;99.90
7204;DHT22;3643;52.460;13.322;2023-05-23T15:56:50;14.20;99.90
7204;DHT22;3643;52.460;13.322;2023-05-23T15:59:18;14.20;99.90
7204;DHT22;3643;52.460;13.322;2023-05-23T16:01:46;14.20;99.90
7204;DHT22;3643;52.460;13.322;2023-05-23T16:04:15;14.20;99.90